PWSweather.com
Personal Weather Stations
Station Observations
KCARIDGE3
Ridgecrest, CA 93555

Ridgecrest, CA 93555

Lat: 35.62083817, Lon: -117.6733017

Elevation: 2315

Station Type:

High Low Average
Temperature 99.1°F37.3°C 74.3°F23.5°C 85.8°F29.9°C
Dew Point 38.3°F3.5°C 26.6°F-3.0°C 33.7°F0.9°C
Winds 15.0 mph 24.1 kmh Calm Calm 7.0 mph SSW11.3 kmh SSW
Wind Gusts 19.9 mph32.0 kmh -- 7.0 mph11.3 kmh
Humidity 26% 8% 17%
Pressure -338605.1 mb -338605.1 mb -
Precipitation 0.00 in0.0 mm - -
Hour Temp Dew Point Humidity Winds Wind Gusts Pressure Precip Precip Rate Daily Precip Total
12:07 AM 82.6°F28.1°C 36.1°F2.3°C 19% 10.1 mph SSW16.3 kmh SSW 13.0 mph20.9 kmh -338605.1 mb - 0.00 in0.0 mm 0.00 in0.0 mm
12:12 AM 82.6°F28.1°C 37.4°F3.0°C 20% 12.1 mph S19.5 kmh S 6.0 mph9.7 kmh -338605.1 mb - 0.00 in0.0 mm 0.00 in0.0 mm
12:17 AM 82.4°F28.0°C 36.0°F2.2°C 19% 13.0 mph SW20.9 kmh SW 14.1 mph22.7 kmh -338605.1 mb - 0.00 in0.0 mm 0.00 in0.0 mm
12:22 AM 82.4°F28.0°C 36.0°F2.2°C 19% 12.1 mph SSW19.5 kmh SSW 14.1 mph22.7 kmh -338605.1 mb - 0.00 in0.0 mm 0.00 in0.0 mm
12:27 AM 82.6°F28.1°C 36.1°F2.3°C 19% 12.1 mph SW19.5 kmh SW 14.1 mph22.7 kmh -338605.1 mb - 0.00 in0.0 mm 0.00 in0.0 mm
12:37 AM 82.0°F27.8°C 35.8°F2.1°C 19% 11.0 mph S17.7 kmh S 10.1 mph16.3 kmh -338605.1 mb - 0.00 in0.0 mm 0.00 in0.0 mm
12:42 AM 81.9°F27.7°C 35.6°F2.0°C 19% 10.1 mph S16.3 kmh S 8.1 mph13.0 kmh -338605.1 mb - 0.00 in0.0 mm 0.00 in0.0 mm
12:47 AM 81.7°F27.6°C 35.4°F1.9°C 19% 8.9 mph SSW14.3 kmh SSW 8.9 mph14.3 kmh -338605.1 mb - 0.00 in0.0 mm 0.00 in0.0 mm
12:52 AM 81.5°F27.5°C 36.5°F2.5°C 20% 10.1 mph SW16.3 kmh SW 17.9 mph28.8 kmh -338605.1 mb - 0.00 in0.0 mm 0.00 in0.0 mm
12:57 AM 81.5°F27.5°C 36.5°F2.5°C 20% 12.1 mph SSW19.5 kmh SSW 8.9 mph14.3 kmh -338605.1 mb - 0.00 in0.0 mm 0.00 in0.0 mm
01:02 AM 81.7°F27.6°C 35.4°F1.9°C 19% 12.1 mph SW19.5 kmh SW 11.0 mph17.7 kmh -338605.1 mb - 0.00 in0.0 mm 0.00 in0.0 mm
01:07 AM 81.3°F27.4°C 36.5°F2.5°C 20% 11.0 mph SW17.7 kmh SW 10.1 mph16.3 kmh -338605.1 mb - 0.00 in0.0 mm 0.00 in0.0 mm
01:12 AM 81.1°F27.3°C 36.3°F2.4°C 20% 10.1 mph S16.3 kmh S 8.9 mph14.3 kmh -338605.1 mb - 0.00 in0.0 mm 0.00 in0.0 mm
01:17 AM 80.8°F27.1°C 36.0°F2.2°C 20% 8.9 mph SSW14.3 kmh SSW 6.9 mph11.1 kmh -338605.1 mb - 0.00 in0.0 mm 0.00 in0.0 mm
01:22 AM 80.4°F26.9°C 35.6°F2.0°C 20% 8.1 mph S13.0 kmh S 11.0 mph17.7 kmh -338605.1 mb - 0.00 in0.0 mm 0.00 in0.0 mm
01:27 AM 80.4°F26.9°C 35.6°F2.0°C 20% 8.9 mph S14.3 kmh S 8.9 mph14.3 kmh -338605.1 mb - 0.00 in0.0 mm 0.00 in0.0 mm
01:32 AM 80.4°F26.9°C 35.6°F2.0°C 20% 10.1 mph S16.3 kmh S 10.1 mph16.3 kmh -338605.1 mb - 0.00 in0.0 mm 0.00 in0.0 mm
01:37 AM 80.4°F26.9°C 35.6°F2.0°C 20% 11.0 mph SSW17.7 kmh SSW 13.0 mph20.9 kmh -338605.1 mb - 0.00 in0.0 mm 0.00 in0.0 mm
01:42 AM 80.2°F26.8°C 35.6°F2.0°C 20% 10.1 mph SW16.3 kmh SW 14.1 mph22.7 kmh -338605.1 mb - 0.00 in0.0 mm 0.00 in0.0 mm
01:47 AM 80.2°F26.8°C 35.6°F2.0°C 20% 10.1 mph S16.3 kmh S 6.0 mph9.7 kmh -338605.1 mb - 0.00 in0.0 mm 0.00 in0.0 mm
01:52 AM 80.2°F26.8°C 35.6°F2.0°C 20% 11.0 mph S17.7 kmh S 8.9 mph14.3 kmh -338605.1 mb - 0.00 in0.0 mm 0.00 in0.0 mm
01:57 AM 80.2°F26.8°C 35.6°F2.0°C 20% 10.1 mph SW16.3 kmh SW 16.1 mph25.9 kmh -338605.1 mb - 0.00 in0.0 mm 0.00 in0.0 mm
02:02 AM 80.2°F26.8°C 36.7°F2.6°C 21% 10.1 mph SW16.3 kmh SW 13.0 mph20.9 kmh -338605.1 mb - 0.00 in0.0 mm 0.00 in0.0 mm
02:07 AM 80.2°F26.8°C 36.7°F2.6°C 21% 10.1 mph SSW16.3 kmh SSW 8.1 mph13.0 kmh -338605.1 mb - 0.00 in0.0 mm 0.00 in0.0 mm
02:12 AM 80.2°F26.8°C 36.7°F2.6°C 21% 10.1 mph SW16.3 kmh SW 10.1 mph16.3 kmh -338605.1 mb - 0.00 in0.0 mm 0.00 in0.0 mm
02:17 AM 80.2°F26.8°C 35.6°F2.0°C 20% 12.1 mph SSW19.5 kmh SSW 6.9 mph11.1 kmh -338605.1 mb - 0.00 in0.0 mm 0.00 in0.0 mm
02:22 AM 80.2°F26.8°C 35.6°F2.0°C 20% 12.1 mph SW19.5 kmh SW 6.9 mph11.1 kmh -338605.1 mb - 0.00 in0.0 mm 0.00 in0.0 mm
02:27 AM 80.2°F26.8°C 36.7°F2.6°C 21% 10.1 mph S16.3 kmh S 11.0 mph17.7 kmh -338605.1 mb - 0.00 in0.0 mm 0.00 in0.0 mm
02:32 AM 80.1°F26.7°C 36.7°F2.6°C 21% 8.9 mph SW14.3 kmh SW 15.0 mph24.1 kmh -338605.1 mb - 0.00 in0.0 mm 0.00 in0.0 mm
02:37 AM 79.9°F26.6°C 36.5°F2.5°C 21% 10.1 mph SW16.3 kmh SW 10.1 mph16.3 kmh -338605.1 mb - 0.00 in0.0 mm 0.00 in0.0 mm
02:42 AM 79.9°F26.6°C 36.5°F2.5°C 21% 10.1 mph SSW16.3 kmh SSW 6.9 mph11.1 kmh -338605.1 mb - 0.00 in0.0 mm 0.00 in0.0 mm
02:47 AM 79.5°F26.4°C 36.1°F2.3°C 21% 10.1 mph SW16.3 kmh SW 11.0 mph17.7 kmh -338605.1 mb - 0.00 in0.0 mm 0.00 in0.0 mm
02:52 AM 79.5°F26.4°C 36.1°F2.3°C 21% 10.1 mph SW16.3 kmh SW 17.0 mph27.4 kmh -338605.1 mb - 0.00 in0.0 mm 0.00 in0.0 mm
02:57 AM 79.5°F26.4°C 36.1°F2.3°C 21% 10.1 mph SW16.3 kmh SW 6.9 mph11.1 kmh -338605.1 mb - 0.00 in0.0 mm 0.00 in0.0 mm
03:02 AM 79.5°F26.4°C 36.1°F2.3°C 21% 10.1 mph SW16.3 kmh SW 8.1 mph13.0 kmh -338605.1 mb - 0.00 in0.0 mm 0.00 in0.0 mm
03:07 AM 79.3°F26.3°C 36.0°F2.2°C 21% 8.9 mph SSW14.3 kmh SSW 6.9 mph11.1 kmh -338605.1 mb - 0.00 in0.0 mm 0.00 in0.0 mm
03:12 AM 79.3°F26.3°C 36.0°F2.2°C 21% 8.1 mph SSW13.0 kmh SSW 6.9 mph11.1 kmh -338605.1 mb - 0.00 in0.0 mm 0.00 in0.0 mm
03:17 AM 79.3°F26.3°C 37.2°F2.9°C 22% 8.1 mph SSW13.0 kmh SSW 6.9 mph11.1 kmh -338605.1 mb - 0.00 in0.0 mm 0.00 in0.0 mm
03:22 AM 79.2°F26.2°C 35.8°F2.1°C 21% 6.9 mph SSW11.1 kmh SSW 8.1 mph13.0 kmh -338605.1 mb - 0.00 in0.0 mm 0.00 in0.0 mm
03:27 AM 79.0°F26.1°C 35.8°F2.1°C 21% 6.9 mph S11.1 kmh S 12.1 mph19.5 kmh -338605.1 mb - 0.00 in0.0 mm 0.00 in0.0 mm
03:32 AM 79.0°F26.1°C 35.8°F2.1°C 21% 6.9 mph SW11.1 kmh SW 6.9 mph11.1 kmh -338605.1 mb - 0.00 in0.0 mm 0.00 in0.0 mm
03:37 AM 78.8°F26.0°C 36.7°F2.6°C 22% 6.0 mph SW9.7 kmh SW 4.9 mph7.9 kmh -338605.1 mb - 0.00 in0.0 mm 0.00 in0.0 mm
03:42 AM 78.4°F25.8°C 36.5°F2.5°C 22% 6.0 mph SW9.7 kmh SW 12.1 mph19.5 kmh -338605.1 mb - 0.00 in0.0 mm 0.00 in0.0 mm
03:47 AM 78.3°F25.7°C 36.3°F2.4°C 22% 8.1 mph S13.0 kmh S 6.9 mph11.1 kmh -338605.1 mb - 0.00 in0.0 mm 0.00 in0.0 mm
03:52 AM 78.3°F25.7°C 36.3°F2.4°C 22% 6.9 mph SW11.1 kmh SW 4.9 mph7.9 kmh -338605.1 mb - 0.00 in0.0 mm 0.00 in0.0 mm
03:57 AM 78.1°F25.6°C 36.1°F2.3°C 22% 6.9 mph S11.1 kmh S 8.9 mph14.3 kmh -338605.1 mb - 0.00 in0.0 mm 0.00 in0.0 mm
04:02 AM 77.9°F25.5°C 36.0°F2.2°C 22% 6.9 mph SSW11.1 kmh SSW 4.9 mph7.9 kmh -338605.1 mb - 0.00 in0.0 mm 0.00 in0.0 mm
04:07 AM 77.5°F25.3°C 36.9°F2.7°C 23% 6.0 mph SSW9.7 kmh SSW 4.9 mph7.9 kmh -338605.1 mb - 0.00 in0.0 mm 0.00 in0.0 mm
04:12 AM 77.5°F25.3°C 36.9°F2.7°C 23% 6.0 mph SW9.7 kmh SW 6.9 mph11.1 kmh -338605.1 mb - 0.00 in0.0 mm 0.00 in0.0 mm
04:17 AM 77.4°F25.2°C 37.8°F3.2°C 24% 6.9 mph SW11.1 kmh SW 4.9 mph7.9 kmh -338605.1 mb - 0.00 in0.0 mm 0.00 in0.0 mm
04:22 AM 77.0°F25.0°C 37.4°F3.0°C 24% 6.9 mph SW11.1 kmh SW 6.9 mph11.1 kmh -338605.1 mb - 0.00 in0.0 mm 0.00 in0.0 mm
04:27 AM 76.8°F24.9°C 37.2°F2.9°C 24% 6.9 mph WSW11.1 kmh WSW 6.0 mph9.7 kmh -338605.1 mb - 0.00 in0.0 mm 0.00 in0.0 mm
04:32 AM 76.6°F24.8°C 37.2°F2.9°C 24% 6.9 mph SW11.1 kmh SW 8.1 mph13.0 kmh -338605.1 mb - 0.00 in0.0 mm 0.00 in0.0 mm
04:37 AM 76.5°F24.7°C 37.0°F2.8°C 24% 6.9 mph WSW11.1 kmh WSW 2.9 mph4.7 kmh -338605.1 mb - 0.00 in0.0 mm 0.00 in0.0 mm
04:42 AM 76.3°F24.6°C 36.9°F2.7°C 24% 6.9 mph SW11.1 kmh SW 8.9 mph14.3 kmh -338605.1 mb - 0.00 in0.0 mm 0.00 in0.0 mm
04:47 AM 76.3°F24.6°C 36.9°F2.7°C 24% 6.0 mph SW9.7 kmh SW 8.1 mph13.0 kmh -338605.1 mb - 0.00 in0.0 mm 0.00 in0.0 mm
04:52 AM 76.3°F24.6°C 36.9°F2.7°C 24% 6.9 mph SSW11.1 kmh SSW 11.0 mph17.7 kmh -338605.1 mb - 0.00 in0.0 mm 0.00 in0.0 mm
04:57 AM 76.3°F24.6°C 36.9°F2.7°C 24% 6.9 mph SW11.1 kmh SW 8.1 mph13.0 kmh -338605.1 mb - 0.00 in0.0 mm 0.00 in0.0 mm
05:02 AM 76.3°F24.6°C 36.9°F2.7°C 24% 6.9 mph S11.1 kmh S 6.0 mph9.7 kmh -338605.1 mb - 0.00 in0.0 mm 0.00 in0.0 mm
05:07 AM 76.3°F24.6°C 36.9°F2.7°C 24% 6.0 mph SSW9.7 kmh SSW 4.9 mph7.9 kmh -338605.1 mb - 0.00 in0.0 mm 0.00 in0.0 mm
05:12 AM 75.9°F24.4°C 36.5°F2.5°C 24% 6.0 mph SSW9.7 kmh SSW 4.9 mph7.9 kmh -338605.1 mb - 0.00 in0.0 mm 0.00 in0.0 mm
05:17 AM 75.9°F24.4°C 36.5°F2.5°C 24% 6.0 mph SW9.7 kmh SW 8.9 mph14.3 kmh -338605.1 mb - 0.00 in0.0 mm 0.00 in0.0 mm
05:22 AM 75.7°F24.3°C 37.4°F3.0°C 25% 6.0 mph SSW9.7 kmh SSW 6.0 mph9.7 kmh -338605.1 mb - 0.00 in0.0 mm 0.00 in0.0 mm
05:27 AM 75.6°F24.2°C 37.2°F2.9°C 25% 6.0 mph SW9.7 kmh SW 8.1 mph13.0 kmh -338605.1 mb - 0.00 in0.0 mm 0.00 in0.0 mm
05:32 AM 75.4°F24.1°C 37.0°F2.8°C 25% 6.0 mph SW9.7 kmh SW 6.9 mph11.1 kmh -338605.1 mb - 0.00 in0.0 mm 0.00 in0.0 mm
05:37 AM 75.4°F24.1°C 37.0°F2.8°C 25% 6.0 mph SW9.7 kmh SW 8.1 mph13.0 kmh -338605.1 mb - 0.00 in0.0 mm 0.00 in0.0 mm
05:42 AM 75.0°F23.9°C 36.9°F2.7°C 25% 6.0 mph SW9.7 kmh SW 4.9 mph7.9 kmh -338605.1 mb - 0.00 in0.0 mm 0.00 in0.0 mm
05:47 AM 75.0°F23.9°C 36.9°F2.7°C 25% 6.0 mph SSW9.7 kmh SSW 6.9 mph11.1 kmh -338605.1 mb - 0.00 in0.0 mm 0.00 in0.0 mm
05:52 AM 74.8°F23.8°C 36.7°F2.6°C 25% 6.0 mph SW9.7 kmh SW 6.0 mph9.7 kmh -338605.1 mb - 0.00 in0.0 mm 0.00 in0.0 mm
05:57 AM 74.7°F23.7°C 37.6°F3.1°C 26% 6.0 mph S9.7 kmh S 6.9 mph11.1 kmh -338605.1 mb - 0.00 in0.0 mm 0.00 in0.0 mm
06:02 AM 74.7°F23.7°C 37.6°F3.1°C 26% 6.0 mph SW9.7 kmh SW 4.0 mph6.4 kmh -338605.1 mb - 0.00 in0.0 mm 0.00 in0.0 mm
06:07 AM 74.5°F23.6°C 37.4°F3.0°C 26% 4.9 mph SSW7.9 kmh SSW 4.0 mph6.4 kmh -338605.1 mb - 0.00 in0.0 mm 0.00 in0.0 mm
06:12 AM 74.5°F23.6°C 37.4°F3.0°C 26% 4.0 mph SSW6.4 kmh SSW 2.9 mph4.7 kmh -338605.1 mb - 0.00 in0.0 mm 0.00 in0.0 mm
06:17 AM 74.3°F23.5°C 37.2°F2.9°C 26% 4.0 mph SSW6.4 kmh SSW 12.1 mph19.5 kmh -338605.1 mb - 0.00 in0.0 mm 0.00 in0.0 mm
06:22 AM 74.3°F23.5°C 37.2°F2.9°C 26% 6.0 mph SSW9.7 kmh SSW 6.0 mph9.7 kmh -338605.1 mb - 0.00 in0.0 mm 0.00 in0.0 mm
06:27 AM 74.3°F23.5°C 37.2°F2.9°C 26% 6.9 mph SW11.1 kmh SW 8.1 mph13.0 kmh -338605.1 mb - 0.00 in0.0 mm 0.00 in0.0 mm
06:32 AM 74.3°F23.5°C 37.2°F2.9°C 26% 6.9 mph SW11.1 kmh SW 6.0 mph9.7 kmh -338605.1 mb - 0.00 in0.0 mm 0.00 in0.0 mm
06:37 AM 74.5°F23.6°C 37.4°F3.0°C 26% 6.9 mph SW11.1 kmh SW 8.1 mph13.0 kmh -338605.1 mb - 0.00 in0.0 mm 0.00 in0.0 mm
06:42 AM 74.5°F23.6°C 36.3°F2.4°C 25% 6.9 mph SSW11.1 kmh SSW 6.0 mph9.7 kmh -338605.1 mb - 0.00 in0.0 mm 0.00 in0.0 mm
06:47 AM 74.7°F23.7°C 35.4°F1.9°C 24% 6.0 mph SSW9.7 kmh SSW 6.9 mph11.1 kmh -338605.1 mb - 0.00 in0.0 mm 0.00 in0.0 mm
06:52 AM 74.8°F23.8°C 35.6°F2.0°C 24% 6.0 mph SW9.7 kmh SW 4.9 mph7.9 kmh -338605.1 mb - 0.00 in0.0 mm 0.00 in0.0 mm
06:57 AM 74.8°F23.8°C 36.7°F2.6°C 25% 4.0 mph SW6.4 kmh SW 4.0 mph6.4 kmh -338605.1 mb - 0.00 in0.0 mm 0.00 in0.0 mm
07:02 AM 74.8°F23.8°C 36.7°F2.6°C 25% 4.0 mph SW6.4 kmh SW 4.0 mph6.4 kmh -338605.1 mb - 0.00 in0.0 mm 0.00 in0.0 mm
07:07 AM 75.0°F23.9°C 35.8°F2.1°C 24% 4.9 mph SSW7.9 kmh SSW 4.9 mph7.9 kmh -338605.1 mb - 0.00 in0.0 mm 0.00 in0.0 mm
07:12 AM 75.4°F24.1°C 36.1°F2.3°C 24% 6.0 mph S9.7 kmh S 8.9 mph14.3 kmh -338605.1 mb - 0.00 in0.0 mm 0.00 in0.0 mm
07:17 AM 75.6°F24.2°C 36.3°F2.4°C 24% 4.9 mph S7.9 kmh S 4.0 mph6.4 kmh -338605.1 mb - 0.00 in0.0 mm 0.00 in0.0 mm
07:22 AM 75.7°F24.3°C 35.2°F1.8°C 23% 4.9 mph SSW7.9 kmh SSW 4.0 mph6.4 kmh -338605.1 mb - 0.00 in0.0 mm 0.00 in0.0 mm
07:27 AM 76.3°F24.6°C 35.8°F2.1°C 23% 4.9 mph SSW7.9 kmh SSW 2.9 mph4.7 kmh -338605.1 mb - 0.00 in0.0 mm 0.00 in0.0 mm
07:32 AM 76.5°F24.7°C 37.0°F2.8°C 24% 2.9 mph ENE4.7 kmh ENE -- -338605.1 mb - 0.00 in0.0 mm 0.00 in0.0 mm
07:37 AM 76.3°F24.6°C 36.9°F2.7°C 24% 0.9 mph ENE1.4 kmh ENE 2.0 mph3.2 kmh -338605.1 mb - 0.00 in0.0 mm 0.00 in0.0 mm
07:42 AM 75.9°F24.4°C 37.6°F3.1°C 25% 0.9 mph ENE1.4 kmh ENE -- -338605.1 mb - 0.00 in0.0 mm 0.00 in0.0 mm
07:47 AM 75.7°F24.3°C 37.4°F3.0°C 25% Calm Calm -- -338605.1 mb - 0.00 in0.0 mm 0.00 in0.0 mm
07:52 AM 76.3°F24.6°C 37.9°F3.3°C 25% Calm Calm 0.9 mph1.4 kmh -338605.1 mb - 0.00 in0.0 mm 0.00 in0.0 mm
07:57 AM 76.6°F24.8°C 38.1°F3.4°C 25% 0.9 mph NE1.4 kmh NE 2.0 mph3.2 kmh -338605.1 mb - 0.00 in0.0 mm 0.00 in0.0 mm
08:02 AM 76.6°F24.8°C 38.1°F3.4°C 25% 0.9 mph NE1.4 kmh NE 2.0 mph3.2 kmh -338605.1 mb - 0.00 in0.0 mm 0.00 in0.0 mm
08:07 AM 76.5°F24.7°C 37.9°F3.3°C 25% 2.0 mph NE3.2 kmh NE 2.9 mph4.7 kmh -338605.1 mb - 0.00 in0.0 mm 0.00 in0.0 mm
08:12 AM 76.3°F24.6°C 37.9°F3.3°C 25% 2.9 mph NE4.7 kmh NE 4.0 mph6.4 kmh -338605.1 mb - 0.00 in0.0 mm 0.00 in0.0 mm
08:17 AM 75.9°F24.4°C 37.6°F3.1°C 25% 2.9 mph NE4.7 kmh NE 2.9 mph4.7 kmh -338605.1 mb - 0.00 in0.0 mm 0.00 in0.0 mm
08:22 AM 75.9°F24.4°C 36.5°F2.5°C 24% 2.9 mph NNE4.7 kmh NNE 2.9 mph4.7 kmh -338605.1 mb - 0.00 in0.0 mm 0.00 in0.0 mm
08:27 AM 76.1°F24.5°C 36.7°F2.6°C 24% 2.9 mph 4.7 kmh 4.0 mph6.4 kmh -338605.1 mb - 0.00 in0.0 mm 0.00 in0.0 mm
08:32 AM 76.5°F24.7°C 37.0°F2.8°C 24% 2.9 mph NNW4.7 kmh NNW 2.0 mph3.2 kmh -338605.1 mb - 0.00 in0.0 mm 0.00 in0.0 mm
08:37 AM 76.6°F24.8°C 37.2°F2.9°C 24% 2.0 mph NNW3.2 kmh NNW 2.9 mph4.7 kmh -338605.1 mb - 0.00 in0.0 mm 0.00 in0.0 mm
08:42 AM 76.8°F24.9°C 37.2°F2.9°C 24% 2.0 mph NNW3.2 kmh NNW 0.9 mph1.4 kmh -338605.1 mb - 0.00 in0.0 mm 0.00 in0.0 mm
08:47 AM 77.2°F25.1°C 36.5°F2.5°C 23% 2.0 mph NNW3.2 kmh NNW -- -338605.1 mb - 0.00 in0.0 mm 0.00 in0.0 mm
08:52 AM 77.5°F25.3°C 36.9°F2.7°C 23% 2.0 mph NW3.2 kmh NW 2.0 mph3.2 kmh -338605.1 mb - 0.00 in0.0 mm 0.00 in0.0 mm
08:57 AM 78.1°F25.6°C 37.2°F2.9°C 23% 0.9 mph NW1.4 kmh NW 0.9 mph1.4 kmh -338605.1 mb - 0.00 in0.0 mm 0.00 in0.0 mm
09:02 AM 78.6°F25.9°C 36.7°F2.6°C 22% 0.9 mph NNW1.4 kmh NNW 0.9 mph1.4 kmh -338605.1 mb - 0.00 in0.0 mm 0.00 in0.0 mm
09:07 AM 79.3°F26.3°C 37.2°F2.9°C 22% 0.9 mph NNW1.4 kmh NNW 0.9 mph1.4 kmh -338605.1 mb - 0.00 in0.0 mm 0.00 in0.0 mm
09:12 AM 79.7°F26.5°C 37.6°F3.1°C 22% 0.9 mph NNW1.4 kmh NNW 0.9 mph1.4 kmh -338605.1 mb - 0.00 in0.0 mm 0.00 in0.0 mm
09:17 AM 79.9°F26.6°C 36.5°F2.5°C 21% 0.9 mph NNW1.4 kmh NNW -- -338605.1 mb - 0.00 in0.0 mm 0.00 in0.0 mm
09:22 AM 80.6°F27.0°C 37.0°F2.8°C 21% 0.9 mph NNW1.4 kmh NNW -- -338605.1 mb - 0.00 in0.0 mm 0.00 in0.0 mm
09:27 AM 81.5°F27.5°C 37.8°F3.2°C 21% 2.0 mph NNW3.2 kmh NNW 0.9 mph1.4 kmh -338605.1 mb - 0.00 in0.0 mm 0.00 in0.0 mm
09:32 AM 82.0°F27.8°C 38.3°F3.5°C 21% 2.0 mph NNW3.2 kmh NNW 2.9 mph4.7 kmh -338605.1 mb - 0.00 in0.0 mm 0.00 in0.0 mm
09:37 AM 82.4°F28.0°C 37.2°F2.9°C 20% 2.0 mph NNW3.2 kmh NNW 2.0 mph3.2 kmh -338605.1 mb - 0.00 in0.0 mm 0.00 in0.0 mm
09:42 AM 82.8°F28.2°C 37.6°F3.1°C 20% 2.0 mph NNW3.2 kmh NNW 2.9 mph4.7 kmh -338605.1 mb - 0.00 in0.0 mm 0.00 in0.0 mm
09:47 AM 82.9°F28.3°C 37.8°F3.2°C 20% 2.0 mph W3.2 kmh W -- -338605.1 mb - 0.00 in0.0 mm 0.00 in0.0 mm
09:52 AM 83.3°F28.5°C 36.7°F2.6°C 19% 2.9 mph W4.7 kmh W 2.0 mph3.2 kmh -338605.1 mb - 0.00 in0.0 mm 0.00 in0.0 mm
09:57 AM 83.7°F28.7°C 37.0°F2.8°C 19% 2.9 mph W4.7 kmh W 4.9 mph7.9 kmh -338605.1 mb - 0.00 in0.0 mm 0.00 in0.0 mm
10:02 AM 83.7°F28.7°C 37.0°F2.8°C 19% 2.0 mph WNW3.2 kmh WNW 0.9 mph1.4 kmh -338605.1 mb - 0.00 in0.0 mm 0.00 in0.0 mm
10:07 AM 84.4°F29.1°C 37.6°F3.1°C 19% 0.9 mph WNW1.4 kmh WNW -- -338605.1 mb - 0.00 in0.0 mm 0.00 in0.0 mm
10:12 AM 84.7°F29.3°C 37.9°F3.3°C 19% 0.9 mph WNW1.4 kmh WNW 4.9 mph7.9 kmh -338605.1 mb - 0.00 in0.0 mm 0.00 in0.0 mm
10:17 AM 84.9°F29.4°C 36.7°F2.6°C 18% 2.0 mph WNW3.2 kmh WNW 2.9 mph4.7 kmh -338605.1 mb - 0.00 in0.0 mm 0.00 in0.0 mm
10:22 AM 85.3°F29.6°C 37.0°F2.8°C 18% 2.0 mph WNW3.2 kmh WNW 0.9 mph1.4 kmh -338605.1 mb - 0.00 in0.0 mm 0.00 in0.0 mm
10:27 AM 86.0°F30.0°C 37.6°F3.1°C 18% 2.0 mph NW3.2 kmh NW 4.0 mph6.4 kmh -338605.1 mb - 0.00 in0.0 mm 0.00 in0.0 mm
10:32 AM 86.2°F30.1°C 37.8°F3.2°C 18% 2.9 mph NW4.7 kmh NW 2.9 mph4.7 kmh -338605.1 mb - 0.00 in0.0 mm 0.00 in0.0 mm
10:37 AM 86.5°F30.3°C 36.5°F2.5°C 17% 2.0 mph NW3.2 kmh NW 0.9 mph1.4 kmh -338605.1 mb - 0.00 in0.0 mm 0.00 in0.0 mm
10:42 AM 86.5°F30.3°C 36.5°F2.5°C 17% 0.9 mph NW1.4 kmh NW 0.9 mph1.4 kmh -338605.1 mb - 0.00 in0.0 mm 0.00 in0.0 mm
10:47 AM 86.9°F30.5°C 36.9°F2.7°C 17% 2.0 mph NW3.2 kmh NW 2.9 mph4.7 kmh -338605.1 mb - 0.00 in0.0 mm 0.00 in0.0 mm
10:52 AM 87.1°F30.6°C 37.0°F2.8°C 17% 2.0 mph W3.2 kmh W 0.9 mph1.4 kmh -338605.1 mb - 0.00 in0.0 mm 0.00 in0.0 mm
10:57 AM 88.0°F31.1°C 36.1°F2.3°C 16% 2.0 mph W3.2 kmh W -- -338605.1 mb - 0.00 in0.0 mm 0.00 in0.0 mm
11:02 AM 88.2°F31.2°C 36.3°F2.4°C 16% 2.0 mph WNW3.2 kmh WNW 0.9 mph1.4 kmh -338605.1 mb - 0.00 in0.0 mm 0.00 in0.0 mm
11:07 AM 88.2°F31.2°C 36.3°F2.4°C 16% 0.9 mph W1.4 kmh W -- -338605.1 mb - 0.00 in0.0 mm 0.00 in0.0 mm
11:12 AM 89.2°F31.8°C 37.2°F2.9°C 16% 0.9 mph W1.4 kmh W 0.9 mph1.4 kmh -338605.1 mb - 0.00 in0.0 mm 0.00 in0.0 mm
11:17 AM 89.8°F32.1°C 36.0°F2.2°C 15% 0.9 mph W1.4 kmh W -- -338605.1 mb - 0.00 in0.0 mm 0.00 in0.0 mm
11:22 AM 89.8°F32.1°C 36.0°F2.2°C 15% 0.9 mph W1.4 kmh W 2.0 mph3.2 kmh -338605.1 mb - 0.00 in0.0 mm 0.00 in0.0 mm
11:27 AM 89.8°F32.1°C 36.0°F2.2°C 15% 2.0 mph W3.2 kmh W 0.9 mph1.4 kmh -338605.1 mb - 0.00 in0.0 mm 0.00 in0.0 mm
11:32 AM 90.3°F32.4°C 36.3°F2.4°C 15% 2.0 mph W3.2 kmh W 2.0 mph3.2 kmh -338605.1 mb - 0.00 in0.0 mm 0.00 in0.0 mm
11:37 AM 90.5°F32.5°C 36.5°F2.5°C 15% 2.0 mph W3.2 kmh W -- -338605.1 mb - 0.00 in0.0 mm 0.00 in0.0 mm
11:42 AM 91.0°F32.8°C 37.0°F2.8°C 15% 2.0 mph S3.2 kmh S 2.9 mph4.7 kmh -338605.1 mb - 0.00 in0.0 mm 0.00 in0.0 mm
11:47 AM 91.6°F33.1°C 35.6°F2.0°C 14% 2.0 mph S3.2 kmh S 2.0 mph3.2 kmh -338605.1 mb - 0.00 in0.0 mm 0.00 in0.0 mm
11:52 AM 92.1°F33.4°C 37.8°F3.2°C 15% 2.9 mph SSE4.7 kmh SSE 4.9 mph7.9 kmh -338605.1 mb - 0.00 in0.0 mm 0.00 in0.0 mm
11:57 AM 92.7°F33.7°C 36.5°F2.5°C 14% 2.9 mph SE4.7 kmh SE 2.0 mph3.2 kmh -338605.1 mb - 0.00 in0.0 mm 0.00 in0.0 mm
12:02 PM 91.8°F33.2°C 35.8°F2.1°C 14% 2.9 mph ENE4.7 kmh ENE 4.9 mph7.9 kmh -338605.1 mb - 0.00 in0.0 mm 0.00 in0.0 mm
12:07 PM 92.7°F33.7°C 36.5°F2.5°C 14% 2.0 mph NE3.2 kmh NE 2.9 mph4.7 kmh -338605.1 mb - 0.00 in0.0 mm 0.00 in0.0 mm
12:12 PM 93.6°F34.2°C 37.2°F2.9°C 14% 2.9 mph ENE4.7 kmh ENE 4.0 mph6.4 kmh -338605.1 mb - 0.00 in0.0 mm 0.00 in0.0 mm
12:17 PM 93.6°F34.2°C 35.4°F1.9°C 13% 4.0 mph NE6.4 kmh NE 0.9 mph1.4 kmh -338605.1 mb - 0.00 in0.0 mm 0.00 in0.0 mm
12:22 PM 93.2°F34.0°C 36.9°F2.7°C 14% 2.9 mph NNE4.7 kmh NNE 0.9 mph1.4 kmh -338605.1 mb - 0.00 in0.0 mm 0.00 in0.0 mm
12:27 PM 93.0°F33.9°C 34.9°F1.6°C 13% 2.9 mph SSE4.7 kmh SSE 8.1 mph13.0 kmh -338605.1 mb - 0.00 in0.0 mm 0.00 in0.0 mm
12:32 PM 93.4°F34.1°C 33.3°F0.7°C 12% 4.0 mph SSE6.4 kmh SSE 0.9 mph1.4 kmh -338605.1 mb - 0.00 in0.0 mm 0.00 in0.0 mm
12:37 PM 93.9°F34.4°C 33.6°F0.9°C 12% 2.9 mph SE4.7 kmh SE 2.0 mph3.2 kmh -338605.1 mb - 0.00 in0.0 mm 0.00 in0.0 mm
12:42 PM 94.5°F34.7°C 34.0°F1.1°C 12% 4.9 mph SW7.9 kmh SW 4.9 mph7.9 kmh -338605.1 mb - 0.00 in0.0 mm 0.00 in0.0 mm
12:47 PM 94.5°F34.7°C 36.0°F2.2°C 13% 6.0 mph SW9.7 kmh SW 6.0 mph9.7 kmh -338605.1 mb - 0.00 in0.0 mm 0.00 in0.0 mm
12:52 PM 93.6°F34.2°C 33.3°F0.7°C 12% 4.0 mph WSW6.4 kmh WSW 2.0 mph3.2 kmh -338605.1 mb - 0.00 in0.0 mm 0.00 in0.0 mm
12:57 PM 94.1°F34.5°C 31.6°F-0.2°C 11% 4.0 mph SSE6.4 kmh SSE 6.0 mph9.7 kmh -338605.1 mb - 0.00 in0.0 mm 0.00 in0.0 mm
01:02 PM 94.6°F34.8°C 34.2°F1.2°C 12% 6.0 mph SE9.7 kmh SE 10.1 mph16.3 kmh -338605.1 mb - 0.00 in0.0 mm 0.00 in0.0 mm
01:07 PM 95.2°F35.1°C 32.4°F0.2°C 11% 6.9 mph ESE11.1 kmh ESE 10.1 mph16.3 kmh -338605.1 mb - 0.00 in0.0 mm 0.00 in0.0 mm
01:12 PM 95.5°F35.3°C 32.7°F0.4°C 11% 6.0 mph SSE9.7 kmh SSE 4.0 mph6.4 kmh -338605.1 mb - 0.00 in0.0 mm 0.00 in0.0 mm
01:17 PM 95.5°F35.3°C 32.7°F0.4°C 11% 4.0 mph NW6.4 kmh NW 2.9 mph4.7 kmh -338605.1 mb - 0.00 in0.0 mm 0.00 in0.0 mm
01:22 PM 95.4°F35.2°C 34.7°F1.5°C 12% 2.0 mph NW3.2 kmh NW -- -338605.1 mb - 0.00 in0.0 mm 0.00 in0.0 mm
01:27 PM 95.7°F35.4°C 32.9°F0.5°C 11% 2.9 mph SSE4.7 kmh SSE 6.0 mph9.7 kmh -338605.1 mb - 0.00 in0.0 mm 0.00 in0.0 mm
01:32 PM 96.3°F35.7°C 33.3°F0.7°C 11% 4.0 mph SE6.4 kmh SE 2.9 mph4.7 kmh -338605.1 mb - 0.00 in0.0 mm 0.00 in0.0 mm
01:37 PM 96.8°F36.0°C 33.6°F0.9°C 11% 4.9 mph SE7.9 kmh SE 2.0 mph3.2 kmh -338605.1 mb - 0.00 in0.0 mm 0.00 in0.0 mm
01:42 PM 96.8°F36.0°C 35.8°F2.1°C 12% 4.0 mph SE6.4 kmh SE 2.9 mph4.7 kmh -338605.1 mb - 0.00 in0.0 mm 0.00 in0.0 mm
01:47 PM 96.1°F35.6°C 33.1°F0.6°C 11% 2.9 mph SE4.7 kmh SE 0.9 mph1.4 kmh -338605.1 mb - 0.00 in0.0 mm 0.00 in0.0 mm
01:52 PM 95.7°F35.4°C 32.9°F0.5°C 11% 2.0 mph E3.2 kmh E 2.0 mph3.2 kmh -338605.1 mb - 0.00 in0.0 mm 0.00 in0.0 mm
01:57 PM 96.3°F35.7°C 35.4°F1.9°C 12% 2.0 mph SSE3.2 kmh SSE 6.9 mph11.1 kmh -338605.1 mb - 0.00 in0.0 mm 0.00 in0.0 mm
02:02 PM 96.6°F35.9°C 33.4°F0.8°C 11% 4.0 mph SSW6.4 kmh SSW 2.9 mph4.7 kmh -338605.1 mb - 0.00 in0.0 mm 0.00 in0.0 mm
02:07 PM 97.2°F36.2°C 31.5°F-0.3°C 10% 4.0 mph SSE6.4 kmh SSE 6.0 mph9.7 kmh -338605.1 mb - 0.00 in0.0 mm 0.00 in0.0 mm
02:12 PM 97.7°F36.5°C 32.0°F0.0°C 10% 4.9 mph E7.9 kmh E 6.9 mph11.1 kmh -338605.1 mb - 0.00 in0.0 mm 0.00 in0.0 mm
02:17 PM 97.9°F36.6°C 29.5°F-1.4°C 9% 4.0 mph E6.4 kmh E -- -338605.1 mb - 0.00 in0.0 mm 0.00 in0.0 mm
02:22 PM 98.1°F36.7°C 36.9°F2.7°C 12% 2.0 mph SSW3.2 kmh SSW 6.9 mph11.1 kmh -338605.1 mb - 0.00 in0.0 mm 0.00 in0.0 mm
02:27 PM 97.5°F36.4°C 31.8°F-0.1°C 10% 2.9 mph S4.7 kmh S 2.9 mph4.7 kmh -338605.1 mb - 0.00 in0.0 mm 0.00 in0.0 mm
02:32 PM 97.3°F36.3°C 31.6°F-0.2°C 10% 4.9 mph WSW7.9 kmh WSW 4.0 mph6.4 kmh -338605.1 mb - 0.00 in0.0 mm 0.00 in0.0 mm
02:37 PM 97.2°F36.2°C 28.9°F-1.7°C 9% 4.0 mph NW6.4 kmh NW -- -338605.1 mb - 0.00 in0.0 mm 0.00 in0.0 mm
02:42 PM 97.3°F36.3°C 31.6°F-0.2°C 10% 2.0 mph NW3.2 kmh NW 2.0 mph3.2 kmh -338605.1 mb - 0.00 in0.0 mm 0.00 in0.0 mm
02:47 PM 98.1°F36.7°C 29.7°F-1.3°C 9% 2.9 mph SE4.7 kmh SE 11.0 mph17.7 kmh -338605.1 mb - 0.00 in0.0 mm 0.00 in0.0 mm
02:52 PM 98.4°F36.9°C 29.8°F-1.2°C 9% 6.9 mph ESE11.1 kmh ESE 6.9 mph11.1 kmh -338605.1 mb - 0.00 in0.0 mm 0.00 in0.0 mm
02:57 PM 99.0°F37.2°C 30.4°F-0.9°C 9% 6.9 mph SSW11.1 kmh SSW 6.9 mph11.1 kmh -338605.1 mb - 0.00 in0.0 mm 0.00 in0.0 mm
03:02 PM 98.8°F37.1°C 32.7°F0.4°C 10% 6.9 mph WSW11.1 kmh WSW 0.9 mph1.4 kmh -338605.1 mb - 0.00 in0.0 mm 0.00 in0.0 mm
03:07 PM 99.0°F37.2°C 30.4°F-0.9°C 9% 6.9 mph WSW11.1 kmh WSW 13.0 mph20.9 kmh -338605.1 mb - 0.00 in0.0 mm 0.00 in0.0 mm
03:12 PM 98.1°F36.7°C 29.7°F-1.3°C 9% 8.1 mph SSW13.0 kmh SSW 6.9 mph11.1 kmh -338605.1 mb - 0.00 in0.0 mm 0.00 in0.0 mm
03:17 PM 98.2°F36.8°C 29.8°F-1.2°C 9% 8.9 mph S14.3 kmh S 8.1 mph13.0 kmh -338605.1 mb - 0.00 in0.0 mm 0.00 in0.0 mm
03:22 PM 98.6°F37.0°C 30.0°F-1.1°C 9% 11.0 mph SW17.7 kmh SW 8.9 mph14.3 kmh -338605.1 mb - 0.00 in0.0 mm 0.00 in0.0 mm
03:27 PM 98.4°F36.9°C 27.0°F-2.8°C 8% 8.1 mph WSW13.0 kmh WSW 4.0 mph6.4 kmh -338605.1 mb - 0.00 in0.0 mm 0.00 in0.0 mm
03:32 PM 98.4°F36.9°C 27.0°F-2.8°C 8% 4.0 mph WSW6.4 kmh WSW 2.9 mph4.7 kmh -338605.1 mb - 0.00 in0.0 mm 0.00 in0.0 mm
03:37 PM 98.4°F36.9°C 27.0°F-2.8°C 8% 6.0 mph SE9.7 kmh SE 6.0 mph9.7 kmh -338605.1 mb - 0.00 in0.0 mm 0.00 in0.0 mm
03:42 PM 99.0°F37.2°C 27.5°F-2.5°C 8% 6.9 mph S11.1 kmh S 8.9 mph14.3 kmh -338605.1 mb - 0.00 in0.0 mm 0.00 in0.0 mm
03:47 PM 99.1°F37.3°C 27.5°F-2.5°C 8% 8.9 mph SW14.3 kmh SW 17.0 mph27.4 kmh -338605.1 mb - 0.00 in0.0 mm 0.00 in0.0 mm
03:52 PM 99.0°F37.2°C 27.5°F-2.5°C 8% 11.0 mph SSE17.7 kmh SSE 11.0 mph17.7 kmh -338605.1 mb - 0.00 in0.0 mm 0.00 in0.0 mm
03:57 PM 99.1°F37.3°C 27.5°F-2.5°C 8% 11.0 mph S17.7 kmh S 11.0 mph17.7 kmh -338605.1 mb - 0.00 in0.0 mm 0.00 in0.0 mm
04:02 PM 99.1°F37.3°C 27.5°F-2.5°C 8% 11.0 mph SW17.7 kmh SW 4.9 mph7.9 kmh -338605.1 mb - 0.00 in0.0 mm 0.00 in0.0 mm
04:07 PM 99.0°F37.2°C 27.5°F-2.5°C 8% 8.1 mph SSE13.0 kmh SSE 15.0 mph24.1 kmh -338605.1 mb - 0.00 in0.0 mm 0.00 in0.0 mm
04:12 PM 99.0°F37.2°C 27.5°F-2.5°C 8% 8.9 mph S14.3 kmh S 8.9 mph14.3 kmh -338605.1 mb - 0.00 in0.0 mm 0.00 in0.0 mm
04:17 PM 98.8°F37.1°C 27.3°F-2.6°C 8% 12.1 mph S19.5 kmh S 10.1 mph16.3 kmh -338605.1 mb - 0.00 in0.0 mm 0.00 in0.0 mm
04:22 PM 98.6°F37.0°C 27.1°F-2.7°C 8% 10.1 mph SW16.3 kmh SW 4.9 mph7.9 kmh -338605.1 mb - 0.00 in0.0 mm 0.00 in0.0 mm
04:27 PM 99.0°F37.2°C 27.5°F-2.5°C 8% 6.0 mph SSE9.7 kmh SSE 8.1 mph13.0 kmh -338605.1 mb - 0.00 in0.0 mm 0.00 in0.0 mm
04:32 PM 98.8°F37.1°C 27.3°F-2.6°C 8% 8.1 mph SSE13.0 kmh SSE 16.1 mph25.9 kmh -338605.1 mb - 0.00 in0.0 mm 0.00 in0.0 mm
04:37 PM 98.4°F36.9°C 27.0°F-2.8°C 8% 12.1 mph SSW19.5 kmh SSW 13.0 mph20.9 kmh -338605.1 mb - 0.00 in0.0 mm 0.00 in0.0 mm
04:42 PM 98.2°F36.8°C 27.0°F-2.8°C 8% 13.0 mph S20.9 kmh S 13.0 mph20.9 kmh -338605.1 mb - 0.00 in0.0 mm 0.00 in0.0 mm
04:47 PM 98.1°F36.7°C 26.8°F-2.9°C 8% 13.0 mph S20.9 kmh S 10.1 mph16.3 kmh -338605.1 mb - 0.00 in0.0 mm 0.00 in0.0 mm
04:52 PM 97.9°F36.6°C 26.6°F-3.0°C 8% 13.0 mph S20.9 kmh S 11.0 mph17.7 kmh -338605.1 mb - 0.00 in0.0 mm 0.00 in0.0 mm
04:57 PM 97.9°F36.6°C 26.6°F-3.0°C 8% 13.0 mph SSW20.9 kmh SSW 17.9 mph28.8 kmh -338605.1 mb - 0.00 in0.0 mm 0.00 in0.0 mm
05:02 PM 98.1°F36.7°C 29.7°F-1.3°C 9% 11.0 mph SSW17.7 kmh SSW 6.0 mph9.7 kmh -338605.1 mb - 0.00 in0.0 mm 0.00 in0.0 mm
05:07 PM 97.9°F36.6°C 29.5°F-1.4°C 9% 12.1 mph S19.5 kmh S 15.0 mph24.1 kmh -338605.1 mb - 0.00 in0.0 mm 0.00 in0.0 mm
05:12 PM 97.5°F36.4°C 29.3°F-1.5°C 9% 13.0 mph S20.9 kmh S 12.1 mph19.5 kmh -338605.1 mb - 0.00 in0.0 mm 0.00 in0.0 mm
05:17 PM 97.3°F36.3°C 29.1°F-1.6°C 9% 13.0 mph S20.9 kmh S 14.1 mph22.7 kmh -338605.1 mb - 0.00 in0.0 mm 0.00 in0.0 mm
05:22 PM 97.3°F36.3°C 31.6°F-0.2°C 10% 11.0 mph SW17.7 kmh SW 8.1 mph13.0 kmh -338605.1 mb - 0.00 in0.0 mm 0.00 in0.0 mm
05:27 PM 97.3°F36.3°C 31.6°F-0.2°C 10% 10.1 mph SW16.3 kmh SW 4.0 mph6.4 kmh -338605.1 mb - 0.00 in0.0 mm 0.00 in0.0 mm
05:32 PM 97.3°F36.3°C 31.6°F-0.2°C 10% 11.0 mph SW17.7 kmh SW 17.9 mph28.8 kmh -338605.1 mb - 0.00 in0.0 mm 0.00 in0.0 mm
05:37 PM 97.0°F36.1°C 31.5°F-0.3°C 10% 12.1 mph S19.5 kmh S 19.9 mph32.0 kmh -338605.1 mb - 0.00 in0.0 mm 0.00 in0.0 mm
05:42 PM 96.8°F36.0°C 31.3°F-0.4°C 10% 14.1 mph S22.7 kmh S 19.0 mph30.6 kmh -338605.1 mb - 0.00 in0.0 mm 0.00 in0.0 mm
05:47 PM 96.6°F35.9°C 31.1°F-0.5°C 10% 14.1 mph SSW22.7 kmh SSW 17.0 mph27.4 kmh -338605.1 mb - 0.00 in0.0 mm 0.00 in0.0 mm
05:52 PM 96.4°F35.8°C 30.9°F-0.6°C 10% 14.1 mph SSW22.7 kmh SSW 8.9 mph14.3 kmh -338605.1 mb - 0.00 in0.0 mm 0.00 in0.0 mm
05:57 PM 96.3°F35.7°C 30.9°F-0.6°C 10% 13.0 mph SSW20.9 kmh SSW 10.1 mph16.3 kmh -338605.1 mb - 0.00 in0.0 mm 0.00 in0.0 mm
06:02 PM 96.1°F35.6°C 30.7°F-0.7°C 10% 13.0 mph S20.9 kmh S 13.0 mph20.9 kmh -338605.1 mb - 0.00 in0.0 mm 0.00 in0.0 mm
06:07 PM 95.7°F35.4°C 30.4°F-0.9°C 10% 12.1 mph SSW19.5 kmh SSW 12.1 mph19.5 kmh -338605.1 mb - 0.00 in0.0 mm 0.00 in0.0 mm
06:12 PM 95.5°F35.3°C 30.4°F-0.9°C 10% 13.0 mph SSW20.9 kmh SSW 11.0 mph17.7 kmh -338605.1 mb - 0.00 in0.0 mm 0.00 in0.0 mm
06:17 PM 95.4°F35.2°C 30.2°F-1.0°C 10% 12.1 mph WSW19.5 kmh WSW 6.9 mph11.1 kmh -338605.1 mb - 0.00 in0.0 mm 0.00 in0.0 mm
06:22 PM 95.4°F35.2°C 30.2°F-1.0°C 10% 10.1 mph SW16.3 kmh SW 10.1 mph16.3 kmh -338605.1 mb - 0.00 in0.0 mm 0.00 in0.0 mm
06:27 PM 95.4°F35.2°C 30.2°F-1.0°C 10% 8.9 mph SSW14.3 kmh SSW 4.0 mph6.4 kmh -338605.1 mb - 0.00 in0.0 mm 0.00 in0.0 mm
06:32 PM 95.2°F35.1°C 30.0°F-1.1°C 10% 8.9 mph WSW14.3 kmh WSW 11.0 mph17.7 kmh -338605.1 mb - 0.00 in0.0 mm 0.00 in0.0 mm
06:37 PM 94.8°F34.9°C 29.8°F-1.2°C 10% 11.0 mph SW17.7 kmh SW 13.0 mph20.9 kmh -338605.1 mb - 0.00 in0.0 mm 0.00 in0.0 mm
06:42 PM 94.6°F34.8°C 29.7°F-1.3°C 10% 11.0 mph WSW17.7 kmh WSW 11.0 mph17.7 kmh -338605.1 mb - 0.00 in0.0 mm 0.00 in0.0 mm
06:47 PM 93.9°F34.4°C 29.1°F-1.6°C 10% 13.0 mph WSW20.9 kmh WSW 15.0 mph24.1 kmh -338605.1 mb - 0.00 in0.0 mm 0.00 in0.0 mm
06:52 PM 93.6°F34.2°C 28.8°F-1.8°C 10% 13.0 mph WSW20.9 kmh WSW 6.0 mph9.7 kmh -338605.1 mb - 0.00 in0.0 mm 0.00 in0.0 mm
06:57 PM 93.2°F34.0°C 28.6°F-1.9°C 10% 10.1 mph SW16.3 kmh SW 11.0 mph17.7 kmh -338605.1 mb - 0.00 in0.0 mm 0.00 in0.0 mm
07:02 PM 92.8°F33.8°C 28.2°F-2.1°C 10% 11.0 mph WSW17.7 kmh WSW 14.1 mph22.7 kmh -338605.1 mb - 0.00 in0.0 mm 0.00 in0.0 mm
07:07 PM 92.1°F33.4°C 27.7°F-2.4°C 10% 13.0 mph WSW20.9 kmh WSW 8.9 mph14.3 kmh -338605.1 mb - 0.00 in0.0 mm 0.00 in0.0 mm
07:12 PM 91.8°F33.2°C 27.5°F-2.5°C 10% 12.1 mph SW19.5 kmh SW 4.9 mph7.9 kmh -338605.1 mb - 0.00 in0.0 mm 0.00 in0.0 mm
07:17 PM 91.4°F33.0°C 27.1°F-2.7°C 10% 10.1 mph SW16.3 kmh SW 8.1 mph13.0 kmh -338605.1 mb - 0.00 in0.0 mm 0.00 in0.0 mm
07:22 PM 91.0°F32.8°C 27.0°F-2.8°C 10% 8.9 mph WSW14.3 kmh WSW 13.0 mph20.9 kmh -338605.1 mb - 0.00 in0.0 mm 0.00 in0.0 mm
07:27 PM 90.7°F32.6°C 26.6°F-3.0°C 10% 8.1 mph SW13.0 kmh SW 8.1 mph13.0 kmh -338605.1 mb - 0.00 in0.0 mm 0.00 in0.0 mm
07:32 PM 90.3°F32.4°C 28.8°F-1.8°C 11% 6.9 mph SW11.1 kmh SW 6.9 mph11.1 kmh -338605.1 mb - 0.00 in0.0 mm 0.00 in0.0 mm
07:37 PM 90.0°F32.2°C 28.4°F-2.0°C 11% 6.9 mph SW11.1 kmh SW 2.9 mph4.7 kmh -338605.1 mb - 0.00 in0.0 mm 0.00 in0.0 mm
07:42 PM 89.4°F31.9°C 28.0°F-2.2°C 11% 6.0 mph SW9.7 kmh SW 6.0 mph9.7 kmh -338605.1 mb - 0.00 in0.0 mm 0.00 in0.0 mm
07:47 PM 89.1°F31.7°C 27.7°F-2.4°C 11% 6.0 mph SW9.7 kmh SW 10.1 mph16.3 kmh -338605.1 mb - 0.00 in0.0 mm 0.00 in0.0 mm
07:52 PM 88.7°F31.5°C 27.5°F-2.5°C 11% 6.9 mph SW11.1 kmh SW 6.9 mph11.1 kmh -338605.1 mb - 0.00 in0.0 mm 0.00 in0.0 mm
07:57 PM 88.3°F31.3°C 27.1°F-2.7°C 11% 8.1 mph SW13.0 kmh SW 11.0 mph17.7 kmh -338605.1 mb - 0.00 in0.0 mm 0.00 in0.0 mm
08:02 PM 88.0°F31.1°C 27.0°F-2.8°C 11% 8.9 mph SW14.3 kmh SW 4.9 mph7.9 kmh -338605.1 mb - 0.00 in0.0 mm 0.00 in0.0 mm
08:12 PM 87.4°F30.8°C 28.6°F-1.9°C 12% 8.1 mph SW13.0 kmh SW 6.9 mph11.1 kmh -338605.1 mb - 0.00 in0.0 mm 0.00 in0.0 mm
08:17 PM 87.3°F30.7°C 28.4°F-2.0°C 12% 6.9 mph SW11.1 kmh SW 8.9 mph14.3 kmh -338605.1 mb - 0.00 in0.0 mm 0.00 in0.0 mm
08:22 PM 87.1°F30.6°C 28.4°F-2.0°C 12% 6.0 mph SSW9.7 kmh SSW 6.9 mph11.1 kmh -338605.1 mb - 0.00 in0.0 mm 0.00 in0.0 mm
08:27 PM 86.5°F30.3°C 27.9°F-2.3°C 12% 6.9 mph SW11.1 kmh SW 8.1 mph13.0 kmh -338605.1 mb - 0.00 in0.0 mm 0.00 in0.0 mm
08:32 PM 86.4°F30.2°C 27.7°F-2.4°C 12% 8.1 mph SW13.0 kmh SW 6.9 mph11.1 kmh -338605.1 mb - 0.00 in0.0 mm 0.00 in0.0 mm
08:37 PM 86.4°F30.2°C 27.7°F-2.4°C 12% 8.1 mph SW13.0 kmh SW 11.0 mph17.7 kmh -338605.1 mb - 0.00 in0.0 mm 0.00 in0.0 mm
08:42 PM 86.2°F30.1°C 29.7°F-1.3°C 13% 6.9 mph SSW11.1 kmh SSW 6.9 mph11.1 kmh -338605.1 mb - 0.00 in0.0 mm 0.00 in0.0 mm
08:47 PM 85.8°F29.9°C 29.3°F-1.5°C 13% 8.1 mph SSW13.0 kmh SSW 6.9 mph11.1 kmh -338605.1 mb - 0.00 in0.0 mm 0.00 in0.0 mm
08:52 PM 85.6°F29.8°C 29.1°F-1.6°C 13% 6.9 mph S11.1 kmh S 8.1 mph13.0 kmh -338605.1 mb - 0.00 in0.0 mm 0.00 in0.0 mm
08:57 PM 85.5°F29.7°C 28.9°F-1.7°C 13% 8.1 mph S13.0 kmh S 8.1 mph13.0 kmh -338605.1 mb - 0.00 in0.0 mm 0.00 in0.0 mm
09:02 PM 85.3°F29.6°C 28.9°F-1.7°C 13% 8.1 mph SSE13.0 kmh SSE 8.9 mph14.3 kmh -338605.1 mb - 0.00 in0.0 mm 0.00 in0.0 mm
09:07 PM 84.9°F29.4°C 28.6°F-1.9°C 13% 8.9 mph S14.3 kmh S 13.0 mph20.9 kmh -338605.1 mb - 0.00 in0.0 mm 0.00 in0.0 mm
09:12 PM 84.7°F29.3°C 28.4°F-2.0°C 13% 10.1 mph S16.3 kmh S 8.1 mph13.0 kmh -338605.1 mb - 0.00 in0.0 mm 0.00 in0.0 mm
09:17 PM 84.7°F29.3°C 28.4°F-2.0°C 13% 11.0 mph S17.7 kmh S 8.1 mph13.0 kmh -338605.1 mb - 0.00 in0.0 mm 0.00 in0.0 mm
09:22 PM 84.6°F29.2°C 28.4°F-2.0°C 13% 10.1 mph S16.3 kmh S 6.9 mph11.1 kmh -338605.1 mb - 0.00 in0.0 mm 0.00 in0.0 mm
09:27 PM 84.6°F29.2°C 28.4°F-2.0°C 13% 10.1 mph S16.3 kmh S 10.1 mph16.3 kmh -338605.1 mb - 0.00 in0.0 mm 0.00 in0.0 mm
09:32 PM 84.7°F29.3°C 30.2°F-1.0°C 14% 12.1 mph S19.5 kmh S 14.1 mph22.7 kmh -338605.1 mb - 0.00 in0.0 mm 0.00 in0.0 mm
09:37 PM 84.7°F29.3°C 30.2°F-1.0°C 14% 11.0 mph S17.7 kmh S 11.0 mph17.7 kmh -338605.1 mb - 0.00 in0.0 mm 0.00 in0.0 mm
09:42 PM 84.6°F29.2°C 31.8°F-0.1°C 15% 10.1 mph S16.3 kmh S 12.1 mph19.5 kmh -338605.1 mb - 0.00 in0.0 mm 0.00 in0.0 mm
09:47 PM 84.2°F29.0°C 31.5°F-0.3°C 15% 10.1 mph S16.3 kmh S 8.9 mph14.3 kmh -338605.1 mb - 0.00 in0.0 mm 0.00 in0.0 mm
09:52 PM 84.0°F28.9°C 33.1°F0.6°C 16% 11.0 mph S17.7 kmh S 13.0 mph20.9 kmh -338605.1 mb - 0.00 in0.0 mm 0.00 in0.0 mm
09:57 PM 83.8°F28.8°C 32.9°F0.5°C 16% 11.0 mph S17.7 kmh S 14.1 mph22.7 kmh -338605.1 mb - 0.00 in0.0 mm 0.00 in0.0 mm
10:02 PM 83.7°F28.7°C 32.7°F0.4°C 16% 10.1 mph S16.3 kmh S 8.1 mph13.0 kmh -338605.1 mb - 0.00 in0.0 mm 0.00 in0.0 mm
10:07 PM 83.5°F28.6°C 34.2°F1.2°C 17% 11.0 mph SSW17.7 kmh SSW 12.1 mph19.5 kmh -338605.1 mb - 0.00 in0.0 mm 0.00 in0.0 mm
10:12 PM 83.1°F28.4°C 33.8°F1.0°C 17% 12.1 mph SSW19.5 kmh SSW 8.9 mph14.3 kmh -338605.1 mb - 0.00 in0.0 mm 0.00 in0.0 mm
10:17 PM 82.9°F28.3°C 33.6°F0.9°C 17% 12.1 mph S19.5 kmh S 8.9 mph14.3 kmh -338605.1 mb - 0.00 in0.0 mm 0.00 in0.0 mm
10:22 PM 82.8°F28.2°C 34.9°F1.6°C 18% 11.0 mph S17.7 kmh S 15.0 mph24.1 kmh -338605.1 mb - 0.00 in0.0 mm 0.00 in0.0 mm
10:27 PM 82.4°F28.0°C 34.7°F1.5°C 18% 12.1 mph S19.5 kmh S 12.1 mph19.5 kmh -338605.1 mb - 0.00 in0.0 mm 0.00 in0.0 mm
10:32 PM 82.4°F28.0°C 34.7°F1.5°C 18% 12.1 mph S19.5 kmh S 17.0 mph27.4 kmh -338605.1 mb - 0.00 in0.0 mm 0.00 in0.0 mm
10:37 PM 82.4°F28.0°C 34.7°F1.5°C 18% 14.1 mph S22.7 kmh S 15.0 mph24.1 kmh -338605.1 mb - 0.00 in0.0 mm 0.00 in0.0 mm
10:42 PM 82.2°F27.9°C 34.5°F1.4°C 18% 15.0 mph S24.1 kmh S 6.9 mph11.1 kmh -338605.1 mb - 0.00 in0.0 mm 0.00 in0.0 mm
10:47 PM 82.2°F27.9°C 34.5°F1.4°C 18% 14.1 mph S22.7 kmh S 17.9 mph28.8 kmh -338605.1 mb - 0.00 in0.0 mm 0.00 in0.0 mm
10:52 PM 82.0°F27.8°C 34.3°F1.3°C 18% 13.0 mph S20.9 kmh S 11.0 mph17.7 kmh -338605.1 mb - 0.00 in0.0 mm 0.00 in0.0 mm
10:57 PM 82.0°F27.8°C 34.3°F1.3°C 18% 13.0 mph S20.9 kmh S 16.1 mph25.9 kmh -338605.1 mb - 0.00 in0.0 mm 0.00 in0.0 mm
11:02 PM 82.0°F27.8°C 34.3°F1.3°C 18% 12.1 mph S19.5 kmh S 4.9 mph7.9 kmh -338605.1 mb - 0.00 in0.0 mm 0.00 in0.0 mm
11:07 PM 82.0°F27.8°C 34.3°F1.3°C 18% 12.1 mph SSW19.5 kmh SSW 11.0 mph17.7 kmh -338605.1 mb - 0.00 in0.0 mm 0.00 in0.0 mm
11:12 PM 81.9°F27.7°C 34.2°F1.2°C 18% 12.1 mph S19.5 kmh S 17.9 mph28.8 kmh -338605.1 mb - 0.00 in0.0 mm 0.00 in0.0 mm
11:17 PM 81.9°F27.7°C 34.2°F1.2°C 18% 12.1 mph S19.5 kmh S 10.1 mph16.3 kmh -338605.1 mb - 0.00 in0.0 mm 0.00 in0.0 mm
11:22 PM 81.7°F27.6°C 34.0°F1.1°C 18% 12.1 mph S19.5 kmh S 14.1 mph22.7 kmh -338605.1 mb - 0.00 in0.0 mm 0.00 in0.0 mm
11:27 PM 81.3°F27.4°C 33.8°F1.0°C 18% 10.1 mph S16.3 kmh S 8.1 mph13.0 kmh -338605.1 mb - 0.00 in0.0 mm 0.00 in0.0 mm
11:32 PM 81.1°F27.3°C 35.1°F1.7°C 19% 10.1 mph S16.3 kmh S 6.0 mph9.7 kmh -338605.1 mb - 0.00 in0.0 mm 0.00 in0.0 mm
11:37 PM 81.0°F27.2°C 34.9°F1.6°C 19% 10.1 mph SSW16.3 kmh SSW 6.0 mph9.7 kmh -338605.1 mb - 0.00 in0.0 mm 0.00 in0.0 mm
11:42 PM 81.0°F27.2°C 33.4°F0.8°C 18% 8.9 mph S14.3 kmh S 4.9 mph7.9 kmh -338605.1 mb - 0.00 in0.0 mm 0.00 in0.0 mm
11:47 PM 81.1°F27.3°C 33.6°F0.9°C 18% 10.1 mph S16.3 kmh S 12.1 mph19.5 kmh -338605.1 mb - 0.00 in0.0 mm 0.00 in0.0 mm
11:52 PM 81.1°F27.3°C 35.1°F1.7°C 19% 11.0 mph SSW17.7 kmh SSW 6.9 mph11.1 kmh -338605.1 mb - 0.00 in0.0 mm 0.00 in0.0 mm
11:57 PM 81.0°F27.2°C 34.9°F1.6°C 19% 11.0 mph SSW17.7 kmh SSW 10.1 mph16.3 kmh -338605.1 mb - 0.00 in0.0 mm 0.00 in0.0 mm